Time;durP1;ratioP1;P1;durP2;ratioP2;P2;SDS_P1;SDS_P2;PMS_P1;PMS_P2;Temp;Humidity;BMP_temperature;BMP_pressure;BME280_temperature;BME280_humidity;BME280_pressure;Samples;Min_cycle;Max_cycle;Signal;HPM_P1;HPM_P2
2023/12/19 00:01:00;;;;;;;13.90;6.13;;;;;;;;;;4974469;28;20037;-67
2023/12/19 00:03:25;;;;;;;22.63;7.60;;;;;;;;;;4984533;28;20336;-67
2023/12/19 00:05:50;;;;;;;15.25;5.78;;;;;;;;;;4979059;28;20269;-67
2023/12/19 00:08:15;;;;;;;17.83;8.77;;;;;;;;;;4994166;28;20098;-68
2023/12/19 00:10:42;;;;;;;23.23;9.02;;;;;;;;;;4980714;28;20015;-67
2023/12/19 00:13:07;;;;;;;19.27;8.85;;;;;;;;;;4980930;28;20019;-67
2023/12/19 00:15:32;;;;;;;13.55;5.07;;;;;;;;;;4983524;28;20171;-67
2023/12/19 00:17:58;;;;;;;17.40;7.50;;;;;;;;;;4983979;28;20095;-68
2023/12/19 00:20:23;;;;;;;19.87;8.73;;;;;;;;;;4978831;28;20140;-67
2023/12/19 00:22:48;;;;;;;19.37;8.00;;;;;;;;;;4981334;28;20289;-67
2023/12/19 00:25:13;;;;;;;23.27;8.43;;;;;;;;;;4982726;28;20261;-67
2023/12/19 00:27:38;;;;;;;13.07;6.43;;;;;;;;;;4983553;28;20252;-67
2023/12/19 00:30:04;;;;;;;14.00;7.10;;;;;;;;;;4993361;28;20054;-68
2023/12/19 00:32:29;;;;;;;17.38;8.55;;;;;;;;;;4980500;28;20300;-67
2023/12/19 00:34:54;;;;;;;12.13;5.57;;;;;;;;;;4978025;28;20034;-68
2023/12/19 00:37:19;;;;;;;19.77;5.30;;;;;;;;;;4983588;28;21053;-67
2023/12/19 00:39:44;;;;;;;22.43;7.17;;;;;;;;;;4981986;28;20273;-67
2023/12/19 00:42:10;;;;;;;23.30;10.50;;;;;;;;;;4978499;28;20852;-68
2023/12/19 00:44:36;;;;;;;17.55;7.97;;;;;;;;;;5000036;28;20261;-67
2023/12/19 00:47:01;;;;;;;12.05;5.90;;;;;;;;;;4976392;28;20536;-67
2023/12/19 00:49:27;;;;;;;13.15;4.63;;;;;;;;;;4969182;28;20102;-67
2023/12/19 00:51:52;;;;;;;20.87;6.93;;;;;;;;;;4968787;28;20019;-68
2023/12/19 00:54:17;;;;;;;11.20;5.30;;;;;;;;;;4972812;28;20357;-68
2023/12/19 00:56:42;;;;;;;26.33;9.93;;;;;;;;;;4977036;28;20610;-67
2023/12/19 00:59:07;;;;;;;7.15;3.10;;;;;;;;;;4974145;28;20485;-67
2023/12/19 01:01:33;;;;;;;21.65;9.45;;;;;;;;;;4968351;28;20034;-67
2023/12/19 01:03:58;;;;;;;11.27;5.40;;;;;;;;;;4972143;28;20035;-68
2023/12/19 01:06:23;;;;;;;21.67;7.82;;;;;;;;;;4972889;28;20085;-68
2023/12/19 01:08:49;;;;;;;15.77;7.00;;;;;;;;;;4974720;28;20038;-67
2023/12/19 01:11:14;;;;;;;11.30;5.03;;;;;;;;;;4969691;28;20072;-68
2023/12/19 01:13:39;;;;;;;15.18;6.95;;;;;;;;;;4969280;28;20026;-67
2023/12/19 01:16:04;;;;;;;9.68;4.68;;;;;;;;;;4972679;28;20018;-67
2023/12/19 01:18:30;;;;;;;11.73;5.63;;;;;;;;;;4972127;28;20027;-68
2023/12/19 01:20:55;;;;;;;16.58;6.38;;;;;;;;;;4977079;28;20023;-67
2023/12/19 01:23:20;;;;;;;14.87;6.10;;;;;;;;;;4973722;28;20019;-68
2023/12/19 01:25:45;;;;;;;16.05;6.32;;;;;;;;;;4969155;28;20302;-68
2023/12/19 01:28:11;;;;;;;14.23;5.43;;;;;;;;;;4971977;28;20022;-68
2023/12/19 01:30:36;;;;;;;7.63;3.30;;;;;;;;;;4972903;28;20736;-68
2023/12/19 01:33:01;;;;;;;13.00;5.97;;;;;;;;;;4969667;28;20610;-67
2023/12/19 01:35:26;;;;;;;18.55;8.07;;;;;;;;;;4969116;28;20273;-67
2023/12/19 01:37:51;;;;;;;5.07;2.67;;;;;;;;;;4972833;28;20022;-68
2023/12/19 01:40:16;;;;;;;8.73;4.10;;;;;;;;;;4976021;28;20258;-67
2023/12/19 01:42:42;;;;;;;8.37;3.50;;;;;;;;;;4967966;28;20289;-67
2023/12/19 01:45:10;;;;;;;16.87;7.97;;;;;;;;;;4990773;28;20340;-67
2023/12/19 01:47:43;;;;;;;6.65;3.80;;;;;;;;;;4969318;28;20243;-68
2023/12/19 01:50:09;;;;;;;19.42;7.32;;;;;;;;;;4971135;28;20097;-67
2023/12/19 01:52:38;;;;;;;15.88;8.02;;;;;;;;;;4980040;28;20456;-68
2023/12/19 01:55:03;;;;;;;9.35;5.40;;;;;;;;;;4968988;28;20026;-68
2023/12/19 01:57:29;;;;;;;13.73;5.07;;;;;;;;;;4968417;28;20027;-67
2023/12/19 01:59:54;;;;;;;11.82;4.80;;;;;;;;;;4985529;28;20025;-67
2023/12/19 02:02:19;;;;;;;19.30;8.57;;;;;;;;;;4969754;28;20106;-68
2023/12/19 02:04:45;;;;;;;14.95;3.65;;;;;;;;;;4973795;28;20420;-68
2023/12/19 02:07:10;;;;;;;4.15;2.40;;;;;;;;;;4973006;28;20019;-67
2023/12/19 02:09:35;;;;;;;9.75;3.95;;;;;;;;;;4968082;28;20038;-68
2023/12/19 02:12:01;;;;;;;11.98;6.05;;;;;;;;;;4968563;28;20054;-67
2023/12/19 02:14:26;;;;;;;14.38;5.90;;;;;;;;;;4972460;28;20053;-68
2023/12/19 02:16:51;;;;;;;22.20;10.18;;;;;;;;;;4976935;28;20114;-67
2023/12/19 02:19:16;;;;;;;16.60;6.68;;;;;;;;;;4971066;28;20027;-67
2023/12/19 02:21:41;;;;;;;16.05;6.65;;;;;;;;;;4975805;28;20027;-68
2023/12/19 02:24:07;;;;;;;9.32;3.58;;;;;;;;;;4985997;28;20269;-67
2023/12/19 02:26:33;;;;;;;17.00;7.32;;;;;;;;;;4973530;28;20041;-67
2023/12/19 02:28:59;;;;;;;11.63;5.75;;;;;;;;;;4976339;28;20031;-68
2023/12/19 02:31:24;;;;;;;7.77;3.13;;;;;;;;;;4977924;28;20101;-67
2023/12/19 02:33:49;;;;;;;9.73;4.45;;;;;;;;;;4970202;28;20270;-68
2023/12/19 02:36:15;;;;;;;24.17;8.23;;;;;;;;;;4973311;28;20026;-68
2023/12/19 02:38:40;;;;;;;18.35;7.03;;;;;;;;;;4974139;28;20031;-68
2023/12/19 02:41:07;;;;;;;15.88;5.82;;;;;;;;;;4970905;28;20015;-68
2023/12/19 02:43:34;;;;;;;13.90;6.95;;;;;;;;;;4976647;28;20096;-68
2023/12/19 02:45:59;;;;;;;20.88;9.07;;;;;;;;;;4976852;28;20022;-68
2023/12/19 02:48:24;;;;;;;14.18;5.88;;;;;;;;;;4991028;28;20533;-68
2023/12/19 02:50:49;;;;;;;12.27;5.17;;;;;;;;;;4974111;28;20015;-68
2023/12/19 02:53:14;;;;;;;15.67;6.63;;;;;;;;;;4971016;28;20777;-67
2023/12/19 02:55:41;;;;;;;14.63;6.77;;;;;;;;;;4994309;28;20283;-68
2023/12/19 02:58:06;;;;;;;14.38;6.57;;;;;;;;;;4980378;28;20265;-68
2023/12/19 03:00:32;;;;;;;17.50;6.77;;;;;;;;;;4978991;28;20381;-68
2023/12/19 03:02:58;;;;;;;21.13;8.60;;;;;;;;;;4977114;28;20293;-68
2023/12/19 03:05:24;;;;;;;19.58;7.85;;;;;;;;;;4995321;28;20253;-68
2023/12/19 03:07:49;;;;;;;14.68;6.30;;;;;;;;;;4977039;28;20023;-68
2023/12/19 03:10:14;;;;;;;21.23;8.83;;;;;;;;;;4978737;28;20072;-68
2023/12/19 03:12:39;;;;;;;22.75;6.57;;;;;;;;;;4977073;28;20266;-67
2023/12/19 03:15:05;;;;;;;10.53;4.50;;;;;;;;;;4977028;28;20026;-69
2023/12/19 03:17:30;;;;;;;10.35;4.00;;;;;;;;;;4990162;28;20774;-67
2023/12/19 03:19:56;;;;;;;13.30;5.72;;;;;;;;;;4979549;28;20019;-67
2023/12/19 03:22:21;;;;;;;15.82;5.53;;;;;;;;;;4979515;28;20534;-68
2023/12/19 03:24:46;;;;;;;6.67;2.80;;;;;;;;;;4980039;28;20029;-68
2023/12/19 03:27:11;;;;;;;9.73;3.65;;;;;;;;;;4977300;28;20254;-68
2023/12/19 03:29:37;;;;;;;23.03;9.27;;;;;;;;;;4977210;28;20080;-67
2023/12/19 03:32:02;;;;;;;10.13;4.55;;;;;;;;;;4984070;28;20610;-69
2023/12/19 03:34:28;;;;;;;11.88;6.28;;;;;;;;;;4978617;28;20071;-69
2023/12/19 03:36:53;;;;;;;15.05;6.75;;;;;;;;;;4978165;28;20095;-69
2023/12/19 03:39:18;;;;;;;20.10;5.72;;;;;;;;;;4983560;28;20030;-69
2023/12/19 03:41:43;;;;;;;6.50;2.93;;;;;;;;;;4968993;28;20034;-69
2023/12/19 03:44:08;;;;;;;8.18;3.67;;;;;;;;;;4974561;28;20766;-69
2023/12/19 03:46:34;;;;;;;10.63;5.28;;;;;;;;;;4975622;28;20533;-69
2023/12/19 03:48:59;;;;;;;12.65;6.05;;;;;;;;;;4977140;28;20035;-68
2023/12/19 03:51:24;;;;;;;6.67;3.73;;;;;;;;;;4978490;28;20469;-68
2023/12/19 03:53:49;;;;;;;4.77;2.73;;;;;;;;;;4973816;28;20259;-67
2023/12/19 03:56:14;;;;;;;6.25;2.92;;;;;;;;;;4977721;28;20262;-68
2023/12/19 03:58:40;;;;;;;3.77;1.90;;;;;;;;;;4990496;28;20426;-68
2023/12/19 04:01:05;;;;;;;8.83;4.23;;;;;;;;;;4991925;28;20382;-67
2023/12/19 04:03:30;;;;;;;6.00;2.45;;;;;;;;;;5000061;28;20277;-67
2023/12/19 04:05:55;;;;;;;9.32;3.95;;;;;;;;;;4986082;28;20019;-67
2023/12/19 04:08:20;;;;;;;7.53;3.85;;;;;;;;;;4979580;28;20050;-68
2023/12/19 04:10:46;;;;;;;4.38;2.28;;;;;;;;;;4976303;28;20437;-69
2023/12/19 04:13:11;;;;;;;7.53;3.15;;;;;;;;;;4988723;28;20034;-69
2023/12/19 04:15:36;;;;;;;8.37;4.70;;;;;;;;;;4983185;28;20027;-69
2023/12/19 04:18:01;;;;;;;3.20;2.43;;;;;;;;;;4978350;28;20332;-69
2023/12/19 04:20:26;;;;;;;5.38;2.75;;;;;;;;;;4984737;28;20254;-69
2023/12/19 04:22:51;;;;;;;8.53;3.77;;;;;;;;;;4980398;28;21139;-69
2023/12/19 04:25:17;;;;;;;4.37;1.60;;;;;;;;;;4982797;28;20752;-69
2023/12/19 04:27:42;;;;;;;9.10;3.08;;;;;;;;;;4991062;28;20266;-69
2023/12/19 04:30:07;;;;;;;3.97;2.10;;;;;;;;;;4977895;28;20023;-69
2023/12/19 04:32:32;;;;;;;4.43;3.10;;;;;;;;;;4990894;28;20266;-69
2023/12/19 04:34:57;;;;;;;8.37;3.53;;;;;;;;;;4980784;28;20155;-69
2023/12/19 04:37:23;;;;;;;5.70;2.83;;;;;;;;;;4986310;28;20751;-69
2023/12/19 04:39:48;;;;;;;9.90;4.13;;;;;;;;;;4979699;28;20336;-69
2023/12/19 04:42:17;;;;;;;6.43;3.53;;;;;;;;;;4978087;28;20278;-69
2023/12/19 04:44:42;;;;;;;7.45;3.58;;;;;;;;;;4990699;28;20115;-69
2023/12/19 04:47:08;;;;;;;12.18;4.47;;;;;;;;;;4978221;28;20045;-69
2023/12/19 04:49:33;;;;;;;7.07;3.40;;;;;;;;;;4978106;28;20459;-69
2023/12/19 04:51:58;;;;;;;2.60;2.03;;;;;;;;;;4975714;28;20254;-69
2023/12/19 04:54:23;;;;;;;5.37;2.57;;;;;;;;;;4976618;28;20266;-69
2023/12/19 04:56:50;;;;;;;7.73;3.67;;;;;;;;;;4987434;28;20320;-69
2023/12/19 04:59:15;;;;;;;7.60;4.05;;;;;;;;;;4986326;28;20270;-69
2023/12/19 05:01:41;;;;;;;7.22;3.90;;;;;;;;;;4983772;28;20448;-69
2023/12/19 05:04:06;;;;;;;7.00;2.08;;;;;;;;;;4977844;28;20019;-69
2023/12/19 05:06:31;;;;;;;6.88;3.15;;;;;;;;;;4975354;28;20015;-69
2023/12/19 05:08:56;;;;;;;4.63;2.10;;;;;;;;;;4975547;28;20019;-69
2023/12/19 05:11:22;;;;;;;4.13;2.58;;;;;;;;;;4975504;28;20505;-69
2023/12/19 05:13:47;;;;;;;4.72;2.40;;;;;;;;;;4986648;28;20037;-69
2023/12/19 05:16:13;;;;;;;4.72;2.55;;;;;;;;;;4979930;28;20129;-69
2023/12/19 05:18:40;;;;;;;5.53;3.40;;;;;;;;;;4980248;28;20050;-69
2023/12/19 05:21:05;;;;;;;5.53;2.08;;;;;;;;;;4976050;28;20026;-69
2023/12/19 05:23:30;;;;;;;8.80;3.63;;;;;;;;;;4976498;28;20026;-69
2023/12/19 05:25:55;;;;;;;10.07;4.73;;;;;;;;;;4985558;28;20025;-69
2023/12/19 05:28:21;;;;;;;8.33;3.17;;;;;;;;;;4985406;28;20826;-69
2023/12/19 05:30:46;;;;;;;4.17;3.00;;;;;;;;;;4976684;28;20261;-69
2023/12/19 05:33:11;;;;;;;7.07;4.03;;;;;;;;;;4980187;28;20361;-70
2023/12/19 05:35:36;;;;;;;4.67;3.23;;;;;;;;;;4978758;28;20034;-69
2023/12/19 05:38:02;;;;;;;6.00;3.38;;;;;;;;;;4977733;28;20263;-69
2023/12/19 05:40:27;;;;;;;7.40;3.75;;;;;;;;;;4977670;28;20026;-69
2023/12/19 05:42:56;;;;;;;5.38;3.05;;;;;;;;;;4979823;28;20402;-69
2023/12/19 05:45:21;;;;;;;3.33;2.20;;;;;;;;;;4974196;28;20020;-69
2023/12/19 05:47:47;;;;;;;7.95;3.88;;;;;;;;;;4978427;28;20069;-69
2023/12/19 05:50:12;;;;;;;3.58;2.03;;;;;;;;;;4979727;28;20030;-69
2023/12/19 05:52:37;;;;;;;2.28;1.85;;;;;;;;;;4986500;28;20038;-69
2023/12/19 05:55:02;;;;;;;8.97;3.60;;;;;;;;;;4989080;28;20088;-69
2023/12/19 05:57:27;;;;;;;6.18;3.45;;;;;;;;;;4977970;28;20258;-69
2023/12/19 05:59:53;;;;;;;7.07;4.07;;;;;;;;;;4976406;28;20018;-69
2023/12/19 06:02:20;;;;;;;3.17;1.77;;;;;;;;;;4975527;28;20038;-69
2023/12/19 06:04:45;;;;;;;10.65;4.90;;;;;;;;;;4982788;28;20330;-69
2023/12/19 06:07:10;;;;;;;12.63;6.13;;;;;;;;;;4977644;28;20027;-69
2023/12/19 06:09:35;;;;;;;7.30;3.23;;;;;;;;;;4981676;28;20597;-69
2023/12/19 06:12:01;;;;;;;15.50;3.50;;;;;;;;;;4976806;28;20311;-69
2023/12/19 06:14:26;;;;;;;8.60;3.33;;;;;;;;;;4984110;28;20635;-69
2023/12/19 06:16:51;;;;;;;8.23;2.30;;;;;;;;;;4976867;28;20030;-69
2023/12/19 06:19:16;;;;;;;10.47;5.43;;;;;;;;;;4994825;28;20851;-69
2023/12/19 06:21:41;;;;;;;7.77;3.53;;;;;;;;;;4988098;28;20269;-69
2023/12/19 06:24:06;;;;;;;5.60;2.77;;;;;;;;;;4981211;28;20290;-69
2023/12/19 06:26:32;;;;;;;11.07;4.05;;;;;;;;;;4981212;28;20562;-69
2023/12/19 06:28:57;;;;;;;12.57;5.77;;;;;;;;;;4981096;28;20011;-69
2023/12/19 06:31:22;;;;;;;16.48;6.57;;;;;;;;;;4974166;28;20264;-68
2023/12/19 06:33:48;;;;;;;14.15;6.47;;;;;;;;;;4970595;28;20031;-69
2023/12/19 06:36:29;;;;;;;4.10;2.22;;;;;;;;;;4971080;28;20105;-69
2023/12/19 06:38:54;;;;;;;3.05;2.33;;;;;;;;;;4976917;28;20061;-69
2023/12/19 06:41:19;;;;;;;10.40;4.75;;;;;;;;;;4979733;28;20054;-69
2023/12/19 06:43:44;;;;;;;10.32;4.53;;;;;;;;;;4981761;28;20062;-69
2023/12/19 06:46:16;;;;;;;7.15;3.08;;;;;;;;;;4998757;28;20014;-69
2023/12/19 06:48:42;;;;;;;4.88;2.15;;;;;;;;;;4986879;28;20015;-69
2023/12/19 06:51:07;;;;;;;5.80;3.33;;;;;;;;;;4980531;28;20019;-69
2023/12/19 06:53:33;;;;;;;11.20;4.10;;;;;;;;;;4991141;28;20072;-69
2023/12/19 06:55:58;;;;;;;10.30;4.15;;;;;;;;;;4982797;28;20990;-69
2023/12/19 06:58:23;;;;;;;4.80;2.27;;;;;;;;;;4980217;28;20035;-69
2023/12/19 07:00:48;;;;;;;13.87;6.07;;;;;;;;;;4989769;28;20286;-69
2023/12/19 07:03:13;;;;;;;5.83;3.53;;;;;;;;;;4980468;28;20286;-69
2023/12/19 07:05:38;;;;;;;1.37;0.83;;;;;;;;;;4980816;28;20625;-69
2023/12/19 07:08:05;;;;;;;8.90;4.37;;;;;;;;;;4975023;28;20274;-69
2023/12/19 07:10:31;;;;;;;3.72;2.28;;;;;;;;;;4974097;28;20262;-69
2023/12/19 07:12:56;;;;;;;4.38;2.42;;;;;;;;;;4992319;28;20018;-69
2023/12/19 07:15:21;;;;;;;6.93;3.20;;;;;;;;;;4980986;28;20648;-69
2023/12/19 07:17:46;;;;;;;5.47;3.00;;;;;;;;;;4976464;28;20265;-69
2023/12/19 07:20:12;;;;;;;4.28;2.63;;;;;;;;;;4972585;28;20049;-69
2023/12/19 07:22:37;;;;;;;6.25;2.85;;;;;;;;;;4979603;28;20057;-69
2023/12/19 07:25:03;;;;;;;5.80;3.17;;;;;;;;;;4980806;28;20154;-70
2023/12/19 07:27:29;;;;;;;5.68;2.92;;;;;;;;;;4977106;28;20046;-69
2023/12/19 07:29:54;;;;;;;10.63;5.25;;;;;;;;;;4984476;28;20014;-70
2023/12/19 07:32:19;;;;;;;3.43;1.83;;;;;;;;;;4974257;28;20033;-69
2023/12/19 07:34:44;;;;;;;3.42;2.13;;;;;;;;;;4975042;28;20393;-69
2023/12/19 07:37:10;;;;;;;7.67;3.80;;;;;;;;;;4969616;28;20027;-69
2023/12/19 07:39:35;;;;;;;5.57;2.67;;;;;;;;;;4983658;28;20270;-69
2023/12/19 07:42:00;;;;;;;8.87;4.23;;;;;;;;;;4978800;28;20305;-69
2023/12/19 07:44:25;;;;;;;4.13;2.60;;;;;;;;;;4986761;28;20254;-69
2023/12/19 07:46:51;;;;;;;5.77;3.43;;;;;;;;;;4978367;28;20038;-69
2023/12/19 07:49:17;;;;;;;5.55;2.28;;;;;;;;;;4976897;28;20666;-69
2023/12/19 07:51:43;;;;;;;6.82;3.13;;;;;;;;;;4978443;28;20022;-69
2023/12/19 07:54:08;;;;;;;3.83;2.03;;;;;;;;;;4975509;28;20026;-69
2023/12/19 07:56:33;;;;;;;6.83;3.37;;;;;;;;;;4979670;28;20068;-69
2023/12/19 07:58:58;;;;;;;8.03;3.27;;;;;;;;;;4987456;28;20301;-69
2023/12/19 08:01:23;;;;;;;6.10;3.27;;;;;;;;;;4978410;28;20319;-69
2023/12/19 08:03:48;;;;;;;15.57;2.80;;;;;;;;;;4981447;28;20290;-70
2023/12/19 08:06:14;;;;;;;6.95;2.95;;;;;;;;;;4988029;28;20257;-69
2023/12/19 08:08:40;;;;;;;9.18;4.10;;;;;;;;;;4986632;28;20040;-69
2023/12/19 08:11:05;;;;;;;4.75;2.47;;;;;;;;;;4985757;28;20026;-69
2023/12/19 08:13:30;;;;;;;8.50;3.85;;;;;;;;;;4984722;28;20018;-69
2023/12/19 08:15:56;;;;;;;8.48;3.33;;;;;;;;;;4976646;28;20031;-69
2023/12/19 08:18:21;;;;;;;10.43;3.85;;;;;;;;;;4983857;28;20101;-69
2023/12/19 08:20:46;;;;;;;2.55;1.23;;;;;;;;;;4974888;28;20050;-69
2023/12/19 08:23:12;;;;;;;5.93;2.47;;;;;;;;;;4981749;28;20470;-69
2023/12/19 08:25:41;;;;;;;9.05;3.13;;;;;;;;;;4974297;28;20481;-69
2023/12/19 08:28:07;;;;;;;4.15;1.00;;;;;;;;;;4984793;28;20102;-69
2023/12/19 08:30:32;;;;;;;7.20;2.60;;;;;;;;;;4983624;28;20101;-69
2023/12/19 08:32:57;;;;;;;6.70;3.00;;;;;;;;;;4980918;28;20080;-69
2023/12/19 08:35:22;;;;;;;8.07;3.23;;;;;;;;;;4984428;28;20075;-69
2023/12/19 08:37:48;;;;;;;3.75;2.10;;;;;;;;;;4986629;28;20732;-70
2023/12/19 08:40:13;;;;;;;4.38;2.10;;;;;;;;;;4986336;28;20034;-69
2023/12/19 08:42:39;;;;;;;5.40;1.73;;;;;;;;;;4993776;28;20060;-69
2023/12/19 08:45:05;;;;;;;3.92;2.03;;;;;;;;;;4997238;28;20760;-69
2023/12/19 08:47:30;;;;;;;6.57;3.22;;;;;;;;;;5003197;28;20049;-69
2023/12/19 08:49:58;;;;;;;8.30;3.35;;;;;;;;;;4998622;28;20026;-69
2023/12/19 08:52:24;;;;;;;12.15;2.50;;;;;;;;;;4997561;28;20073;-69
2023/12/19 08:54:51;;;;;;;5.20;2.97;;;;;;;;;;4995260;28;20030;-69
2023/12/19 08:57:16;;;;;;;3.70;1.85;;;;;;;;;;4980651;28;20643;-70
2023/12/19 08:59:41;;;;;;;2.60;1.43;;;;;;;;;;4975542;28;20022;-69
2023/12/19 09:02:06;;;;;;;2.30;1.52;;;;;;;;;;5007210;28;20297;-70
2023/12/19 09:04:32;;;;;;;3.65;1.15;;;;;;;;;;4987985;28;20064;-69
2023/12/19 09:06:58;;;;;;;3.65;1.95;;;;;;;;;;4987267;28;20015;-69
2023/12/19 09:09:23;;;;;;;2.85;1.67;;;;;;;;;;4984768;28;20023;-69
2023/12/19 09:11:48;;;;;;;1.87;1.20;;;;;;;;;;4984761;28;20059;-69
2023/12/19 09:14:14;;;;;;;3.92;2.08;;;;;;;;;;4977392;28;20271;-69
2023/12/19 09:16:39;;;;;;;2.67;1.55;;;;;;;;;;4982849;28;20033;-69
2023/12/19 09:19:05;;;;;;;5.22;2.60;;;;;;;;;;4983223;28;20029;-69
2023/12/19 09:21:31;;;;;;;1.73;1.58;;;;;;;;;;4985154;28;20124;-69
2023/12/19 09:23:56;;;;;;;3.90;1.73;;;;;;;;;;4983959;28;20469;-69
2023/12/19 09:26:21;;;;;;;0.80;0.75;;;;;;;;;;4981259;28;20031;-69
2023/12/19 09:28:46;;;;;;;3.97;1.70;;;;;;;;;;4984863;28;20508;-69
2023/12/19 09:31:12;;;;;;;4.15;2.03;;;;;;;;;;4982965;28;20015;-69
2023/12/19 09:33:38;;;;;;;3.00;1.50;;;;;;;;;;4985043;28;20037;-70
2023/12/19 09:36:09;;;;;;;3.72;1.67;;;;;;;;;;4982290;28;20270;-69
2023/12/19 09:38:35;;;;;;;14.63;1.63;;;;;;;;;;4984664;28;20101;-69
2023/12/19 09:41:02;;;;;;;4.80;1.63;;;;;;;;;;4983438;28;20164;-70
2023/12/19 09:43:31;;;;;;;1.70;1.15;;;;;;;;;;4979990;28;20023;-69
2023/12/19 09:45:57;;;;;;;2.30;1.63;;;;;;;;;;4983766;28;20010;-69
2023/12/19 09:48:23;;;;;;;2.45;0.98;;;;;;;;;;4984090;28;20033;-69
2023/12/19 09:50:49;;;;;;;3.35;1.95;;;;;;;;;;4984862;28;20021;-69
2023/12/19 09:53:15;;;;;;;2.83;1.45;;;;;;;;;;4982134;28;20034;-69
2023/12/19 09:55:43;;;;;;;3.38;1.55;;;;;;;;;;4985920;28;20026;-69
2023/12/19 09:58:10;;;;;;;6.78;1.88;;;;;;;;;;4979616;28;20023;-69
2023/12/19 10:00:38;;;;;;;1.65;0.90;;;;;;;;;;4984569;28;20026;-70
2023/12/19 10:03:03;;;;;;;2.70;1.60;;;;;;;;;;4983350;28;20065;-69
2023/12/19 10:05:29;;;;;;;3.13;1.00;;;;;;;;;;4983240;28;20049;-69
2023/12/19 10:07:56;;;;;;;2.60;1.33;;;;;;;;;;4984462;28;20045;-69
2023/12/19 10:10:27;;;;;;;2.80;1.27;;;;;;;;;;4984119;28;20670;-69
2023/12/19 10:12:52;;;;;;;1.67;1.02;;;;;;;;;;4975987;28;20091;-70
2023/12/19 10:15:17;;;;;;;3.42;1.75;;;;;;;;;;4971650;28;20039;-69
2023/12/19 10:18:03;;;;;;;4.82;1.52;;;;;;;;;;4974549;28;20061;-69
2023/12/19 10:20:28;;;;;;;4.13;1.80;;;;;;;;;;4972002;28;20109;-69
2023/12/19 10:23:03;;;;;;;1.00;0.70;;;;;;;;;;4974537;28;20105;-69
2023/12/19 10:25:28;;;;;;;1.30;1.15;;;;;;;;;;4973212;28;20023;-69
2023/12/19 10:28:04;;;;;;;3.63;1.65;;;;;;;;;;4977821;28;20023;-69
2023/12/19 10:30:29;;;;;;;2.45;1.02;;;;;;;;;;4965199;28;20022;-69
2023/12/19 10:32:57;;;;;;;1.55;0.85;;;;;;;;;;4985802;28;20393;-69
2023/12/19 10:35:22;;;;;;;1.60;1.10;;;;;;;;;;4977924;28;20171;-69
2023/12/19 10:37:47;;;;;;;1.27;0.87;;;;;;;;;;4981932;28;20057;-69
2023/12/19 10:40:15;;;;;;;2.90;1.00;;;;;;;;;;4983736;28;20253;-70
2023/12/19 10:42:40;;;;;;;9.05;1.40;;;;;;;;;;4980990;28;20018;-69
2023/12/19 10:45:06;;;;;;;4.33;1.23;;;;;;;;;;4983594;28;20018;-69
2023/12/19 10:47:31;;;;;;;2.67;0.93;;;;;;;;;;4984612;28;20290;-69
2023/12/19 10:49:57;;;;;;;6.22;1.75;;;;;;;;;;4982462;28;20113;-68
2023/12/19 10:52:24;;;;;;;5.60;1.13;;;;;;;;;;4985327;28;20681;-68
2023/12/19 10:54:52;;;;;;;4.13;1.52;;;;;;;;;;4977617;28;20124;-68
2023/12/19 10:57:18;;;;;;;3.22;1.60;;;;;;;;;;4972163;28;20046;-68
2023/12/19 10:59:43;;;;;;;2.60;1.17;;;;;;;;;;4983628;28;20056;-68
2023/12/19 11:02:27;;;;;;;2.10;0.70;;;;;;;;;;4982448;28;20038;-68
2023/12/19 11:04:58;;;;;;;4.07;1.13;;;;;;;;;;4975125;28;20625;-68
2023/12/19 11:07:25;;;;;;;1.77;0.90;;;;;;;;;;4987987;28;20022;-68
2023/12/19 11:09:55;;;;;;;3.15;1.30;;;;;;;;;;4988994;28;20516;-68
2023/12/19 11:12:20;;;;;;;8.10;2.28;;;;;;;;;;4969733;28;20026;-69
2023/12/19 11:14:45;;;;;;;10.60;2.63;;;;;;;;;;4970276;28;20091;-69
2023/12/19 11:17:19;;;;;;;5.57;1.50;;;;;;;;;;4970546;28;20023;-68
2023/12/19 11:19:51;;;;;;;2.97;0.82;;;;;;;;;;4972839;28;20270;-68
2023/12/19 11:22:16;;;;;;;2.65;1.27;;;;;;;;;;4970178;28;20114;-69
2023/12/19 11:24:45;;;;;;;10.90;1.65;;;;;;;;;;4996437;28;20108;-68
2023/12/19 11:27:14;;;;;;;3.08;1.42;;;;;;;;;;4979322;28;20023;-68
2023/12/19 11:29:54;;;;;;;1.63;1.00;;;;;;;;;;4970219;28;20083;-68
2023/12/19 11:32:28;;;;;;;3.53;1.40;;;;;;;;;;4971102;28;20045;-68
2023/12/19 11:35:06;;;;;;;2.58;1.67;;;;;;;;;;4971796;28;20323;-68
2023/12/19 11:37:32;;;;;;;1.92;0.93;;;;;;;;;;4965585;28;20022;-68
2023/12/19 11:39:57;;;;;;;2.17;1.63;;;;;;;;;;4969806;28;20225;-68
2023/12/19 11:42:37;;;;;;;1.10;0.63;;;;;;;;;;4970904;28;20046;-69
2023/12/19 11:45:17;;;;;;;6.05;1.65;;;;;;;;;;4971322;28;20277;-69
2023/12/19 11:47:43;;;;;;;;;;;;;;;;;;4969418;28;20030;-69
2023/12/19 11:50:08;;;;;;;0.30;0.30;;;;;;;;;;4971226;28;19910;-69
2023/12/19 11:52:37;;;;;;;4.03;1.90;;;;;;;;;;4969965;28;20050;-69
2023/12/19 11:55:03;;;;;;;2.05;1.27;;;;;;;;;;4970413;28;20101;-69
2023/12/19 11:57:28;;;;;;;7.15;1.40;;;;;;;;;;4972387;28;20034;-69
2023/12/19 11:59:54;;;;;;;4.47;1.50;;;;;;;;;;4971259;28;20027;-68
2023/12/19 12:02:26;;;;;;;7.60;1.83;;;;;;;;;;4972159;28;20050;-69
2023/12/19 12:05:08;;;;;;;3.78;1.70;;;;;;;;;;4972089;28;20019;-69
2023/12/19 12:07:34;;;;;;;9.40;2.13;;;;;;;;;;4977292;28;20465;-69
2023/12/19 12:10:00;;;;;;;4.78;1.85;;;;;;;;;;4970302;28;20029;-69
2023/12/19 12:12:29;;;;;;;3.92;1.83;;;;;;;;;;4973391;28;20022;-68
2023/12/19 12:15:04;;;;;;;13.07;2.10;;;;;;;;;;4971985;28;20505;-69
2023/12/19 12:17:29;;;;;;;8.90;1.65;;;;;;;;;;4969472;28;20125;-69
2023/12/19 12:19:55;;;;;;;10.15;1.67;;;;;;;;;;4969942;28;20098;-69
2023/12/19 12:22:20;;;;;;;3.17;1.63;;;;;;;;;;4971404;28;20026;-69
2023/12/19 12:24:45;;;;;;;1.02;0.60;;;;;;;;;;4972201;28;20447;-69
2023/12/19 12:27:10;;;;;;;0.40;0.40;;;;;;;;;;4973156;28;20034;-69
2023/12/19 12:29:36;;;;;;;3.58;1.50;;;;;;;;;;4972281;28;20337;-69
2023/12/19 12:32:02;;;;;;;0.40;0.40;;;;;;;;;;4990878;28;20383;-69
2023/12/19 12:34:30;;;;;;;1.92;0.80;;;;;;;;;;4971546;28;20475;-69
2023/12/19 12:36:56;;;;;;;4.32;1.70;;;;;;;;;;4971449;28;20030;-69
2023/12/19 12:39:21;;;;;;;5.47;2.15;;;;;;;;;;4972634;28;20022;-69
2023/12/19 12:41:46;;;;;;;10.32;1.67;;;;;;;;;;4972240;28;20386;-69
2023/12/19 12:44:12;;;;;;;3.05;1.40;;;;;;;;;;4972870;28;20026;-69
2023/12/19 12:46:42;;;;;;;8.50;2.28;;;;;;;;;;4971853;28;20077;-69
2023/12/19 12:49:07;;;;;;;;;;;;;;;;;;4970441;28;20027;-68
2023/12/19 12:51:32;;;;;;;2.42;1.05;;;;;;;;;;4977448;28;19925;-67
2023/12/19 12:54:02;;;;;;;5.95;2.22;;;;;;;;;;4971533;28;20018;-67
2023/12/19 12:56:32;;;;;;;1.17;0.75;;;;;;;;;;4972866;28;20109;-68
2023/12/19 12:59:06;;;;;;;4.88;1.92;;;;;;;;;;4972158;28;20030;-68
2023/12/19 13:01:31;;;;;;;1.38;0.82;;;;;;;;;;4968105;28;20041;-68
2023/12/19 13:03:57;;;;;;;14.05;0.95;;;;;;;;;;4969089;28;20477;-68
2023/12/19 13:06:23;;;;;;;1.25;0.98;;;;;;;;;;4969988;28;20026;-68
2023/12/19 13:08:49;;;;;;;5.78;1.40;;;;;;;;;;4971881;28;20034;-68
2023/12/19 13:11:14;;;;;;;1.45;1.00;;;;;;;;;;4973061;28;20014;-68
2023/12/19 13:13:39;;;;;;;4.60;1.73;;;;;;;;;;4965841;28;20029;-68
2023/12/19 13:16:06;;;;;;;2.00;0.80;;;;;;;;;;4971483;28;20034;-67
2023/12/19 13:18:31;;;;;;;1.92;1.40;;;;;;;;;;4972475;28;20018;-68
2023/12/19 13:20:57;;;;;;;3.13;1.67;;;;;;;;;;4972550;28;20482;-67
2023/12/19 13:23:22;;;;;;;1.97;1.47;;;;;;;;;;4973316;28;20339;-67
2023/12/19 13:25:48;;;;;;;1.52;0.75;;;;;;;;;;4972419;28;20698;-68
2023/12/19 13:28:14;;;;;;;2.25;0.85;;;;;;;;;;4973698;28;20030;-68
2023/12/19 13:30:40;;;;;;;3.58;1.83;;;;;;;;;;4969950;28;20076;-68
2023/12/19 13:33:05;;;;;;;2.75;2.15;;;;;;;;;;5031573;28;20013;-68
2023/12/19 13:35:32;;;;;;;5.72;1.33;;;;;;;;;;4973120;28;20097;-68
2023/12/19 13:37:58;;;;;;;2.72;1.77;;;;;;;;;;4973350;28;20022;-68
2023/12/19 13:40:24;;;;;;;2.60;1.13;;;;;;;;;;4974472;28;20026;-68
2023/12/19 13:42:49;;;;;;;2.10;1.07;;;;;;;;;;4972357;28;20034;-68
2023/12/19 13:45:14;;;;;;;2.38;1.60;;;;;;;;;;4983786;28;20302;-68
2023/12/19 13:47:40;;;;;;;8.95;1.27;;;;;;;;;;4972268;28;20065;-68
2023/12/19 13:50:05;;;;;;;4.38;1.50;;;;;;;;;;4973058;28;20019;-68
2023/12/19 13:52:30;;;;;;;2.85;1.17;;;;;;;;;;4972695;28;20416;-68
2023/12/19 13:54:56;;;;;;;8.13;1.70;;;;;;;;;;4971289;28;20046;-68
2023/12/19 13:57:21;;;;;;;1.08;0.93;;;;;;;;;;4974966;28;20358;-68
2023/12/19 13:59:47;;;;;;;1.48;1.00;;;;;;;;;;4972534;28;20053;-68
2023/12/19 14:02:17;;;;;;;2.47;1.80;;;;;;;;;;4979296;28;20203;-68
2023/12/19 14:04:43;;;;;;;7.63;1.65;;;;;;;;;;4972495;28;20384;-68
2023/12/19 14:07:13;;;;;;;2.63;1.23;;;;;;;;;;4968796;28;20033;-68
2023/12/19 14:09:38;;;;;;;4.55;1.65;;;;;;;;;;4972184;28;20254;-68
2023/12/19 14:12:04;;;;;;;1.37;0.80;;;;;;;;;;4998783;28;20032;-68
2023/12/19 14:14:29;;;;;;;5.70;2.65;;;;;;;;;;4975662;28;20269;-68
2023/12/19 14:16:54;;;;;;;3.60;1.05;;;;;;;;;;4977163;28;20050;-68
2023/12/19 14:19:19;;;;;;;5.15;1.92;;;;;;;;;;4974901;28;20486;-68
2023/12/19 14:21:45;;;;;;;5.18;2.17;;;;;;;;;;4971845;28;20486;-68
2023/12/19 14:24:10;;;;;;;7.65;2.60;;;;;;;;;;5000030;28;20433;-68
2023/12/19 14:26:37;;;;;;;3.85;2.08;;;;;;;;;;4973954;28;20018;-68
2023/12/19 14:29:02;;;;;;;3.40;1.15;;;;;;;;;;4973621;28;20019;-68
2023/12/19 14:31:27;;;;;;;4.63;2.10;;;;;;;;;;4975400;28;20019;-68
2023/12/19 14:33:52;;;;;;;2.67;1.80;;;;;;;;;;4972939;28;20842;-68